sensor_id;sensor_type;location;lat;lon;timestamp;temperature;humidity
11855;DHT22;5987;53.140;8.904;2022-12-18T00:02:27;-6.10;99.90
11855;DHT22;5987;53.140;8.904;2022-12-18T00:05:31;-6.20;99.90
11855;DHT22;5987;53.140;8.904;2022-12-18T00:08:35;-6.30;99.90
11855;DHT22;5987;53.140;8.904;2022-12-18T00:11:40;-6.40;99.90
11855;DHT22;5987;53.140;8.904;2022-12-18T00:14:44;-6.40;99.90
11855;DHT22;5987;53.140;8.904;2022-12-18T00:17:47;-6.50;99.90
11855;DHT22;5987;53.140;8.904;2022-12-18T00:20:51;-6.50;99.90
11855;DHT22;5987;53.140;8.904;2022-12-18T00:23:55;-6.70;99.90
11855;DHT22;5987;53.140;8.904;2022-12-18T00:27:00;-6.70;99.90
11855;DHT22;5987;53.140;8.904;2022-12-18T00:30:05;-6.70;99.90
11855;DHT22;5987;53.140;8.904;2022-12-18T00:33:10;-6.60;99.90
11855;DHT22;5987;53.140;8.904;2022-12-18T00:36:16;-6.60;99.90
11855;DHT22;5987;53.140;8.904;2022-12-18T00:39:21;-6.50;99.90
11855;DHT22;5987;53.140;8.904;2022-12-18T00:42:26;-6.50;99.90
11855;DHT22;5987;53.140;8.904;2022-12-18T00:45:47;-6.50;99.90
11855;DHT22;5987;53.140;8.904;2022-12-18T00:48:51;-6.40;99.90
11855;DHT22;5987;53.140;8.904;2022-12-18T00:51:54;-6.50;99.90
11855;DHT22;5987;53.140;8.904;2022-12-18T00:54:58;-6.40;99.90
11855;DHT22;5987;53.140;8.904;2022-12-18T00:58:09;-6.40;99.90
11855;DHT22;5987;53.140;8.904;2022-12-18T01:01:14;-6.40;99.90
11855;DHT22;5987;53.140;8.904;2022-12-18T01:04:18;-6.40;99.90
11855;DHT22;5987;53.140;8.904;2022-12-18T01:07:21;-6.40;99.90
11855;DHT22;5987;53.140;8.904;2022-12-18T01:10:26;-6.40;99.90
11855;DHT22;5987;53.140;8.904;2022-12-18T01:13:31;-6.50;99.90
11855;DHT22;5987;53.140;8.904;2022-12-18T01:16:34;-6.50;99.90
11855;DHT22;5987;53.140;8.904;2022-12-18T01:19:38;-6.50;99.90
11855;DHT22;5987;53.140;8.904;2022-12-18T01:22:42;-6.50;99.90
11855;DHT22;5987;53.140;8.904;2022-12-18T01:25:45;-6.50;99.90
11855;DHT22;5987;53.140;8.904;2022-12-18T01:28:50;-6.60;99.90
11855;DHT22;5987;53.140;8.904;2022-12-18T01:31:55;-6.60;99.90
11855;DHT22;5987;53.140;8.904;2022-12-18T01:34:59;-6.60;99.90
11855;DHT22;5987;53.140;8.904;2022-12-18T01:38:03;-6.40;99.90
11855;DHT22;5987;53.140;8.904;2022-12-18T01:41:08;-6.40;99.90
11855;DHT22;5987;53.140;8.904;2022-12-18T01:44:51;-6.30;99.90
11855;DHT22;5987;53.140;8.904;2022-12-18T01:48:00;-6.20;99.90
11855;DHT22;5987;53.140;8.904;2022-12-18T01:51:08;-6.10;99.90
11855;DHT22;5987;53.140;8.904;2022-12-18T01:54:14;-6.20;99.90
11855;DHT22;5987;53.140;8.904;2022-12-18T01:57:17;-6.30;99.90
11855;DHT22;5987;53.140;8.904;2022-12-18T02:00:23;-6.40;99.90
11855;DHT22;5987;53.140;8.904;2022-12-18T02:03:28;-6.30;99.90
11855;DHT22;5987;53.140;8.904;2022-12-18T02:06:36;-6.40;99.90
11855;DHT22;5987;53.140;8.904;2022-12-18T02:09:47;-6.50;99.90
11855;DHT22;5987;53.140;8.904;2022-12-18T02:12:59;-6.50;99.90
11855;DHT22;5987;53.140;8.904;2022-12-18T02:16:18;-6.20;99.90
11855;DHT22;5987;53.140;8.904;2022-12-18T02:19:39;-6.10;99.90
11855;DHT22;5987;53.140;8.904;2022-12-18T02:23:06;-6.20;99.90
11855;DHT22;5987;53.140;8.904;2022-12-18T02:26:23;-6.30;99.90
11855;DHT22;5987;53.140;8.904;2022-12-18T02:29:35;-6.30;99.90
11855;DHT22;5987;53.140;8.904;2022-12-18T02:32:45;-6.40;99.90
11855;DHT22;5987;53.140;8.904;2022-12-18T02:35:54;-6.40;99.90
11855;DHT22;5987;53.140;8.904;2022-12-18T02:39:01;-6.50;99.90
11855;DHT22;5987;53.140;8.904;2022-12-18T02:42:09;-6.60;99.90
11855;DHT22;5987;53.140;8.904;2022-12-18T02:45:13;-6.50;99.90
11855;DHT22;5987;53.140;8.904;2022-12-18T02:48:19;-6.50;99.90
11855;DHT22;5987;53.140;8.904;2022-12-18T02:51:30;-6.20;99.90
11855;DHT22;5987;53.140;8.904;2022-12-18T02:54:55;-6.20;99.90
11855;DHT22;5987;53.140;8.904;2022-12-18T02:58:13;-6.10;99.90
11855;DHT22;5987;53.140;8.904;2022-12-18T03:01:28;-6.00;99.90
11855;DHT22;5987;53.140;8.904;2022-12-18T03:04:40;-6.20;99.90
11855;DHT22;5987;53.140;8.904;2022-12-18T03:07:53;-6.40;99.90
11855;DHT22;5987;53.140;8.904;2022-12-18T03:11:03;-6.40;99.90
11855;DHT22;5987;53.140;8.904;2022-12-18T03:14:11;-6.40;99.90
11855;DHT22;5987;53.140;8.904;2022-12-18T03:17:19;-6.60;99.90
11855;DHT22;5987;53.140;8.904;2022-12-18T03:20:30;-6.60;99.90
11855;DHT22;5987;53.140;8.904;2022-12-18T03:23:42;-6.20;99.90
11855;DHT22;5987;53.140;8.904;2022-12-18T03:26:53;-6.20;99.90
11855;DHT22;5987;53.140;8.904;2022-12-18T03:30:08;-6.30;99.90
11855;DHT22;5987;53.140;8.904;2022-12-18T03:33:17;-6.50;99.90
11855;DHT22;5987;53.140;8.904;2022-12-18T03:36:27;-6.60;99.90
11855;DHT22;5987;53.140;8.904;2022-12-18T03:39:34;-6.70;99.90
11855;DHT22;5987;53.140;8.904;2022-12-18T03:42:46;-6.50;99.90
11855;DHT22;5987;53.140;8.904;2022-12-18T03:46:02;-6.40;99.90
11855;DHT22;5987;53.140;8.904;2022-12-18T03:49:10;-6.60;99.90
11855;DHT22;5987;53.140;8.904;2022-12-18T03:52:26;-6.80;99.90
11855;DHT22;5987;53.140;8.904;2022-12-18T03:55:34;-7.00;99.90
11855;DHT22;5987;53.140;8.904;2022-12-18T03:58:40;-6.80;99.90
11855;DHT22;5987;53.140;8.904;2022-12-18T04:01:49;-6.90;99.90
11855;DHT22;5987;53.140;8.904;2022-12-18T04:04:59;-6.90;99.90
11855;DHT22;5987;53.140;8.904;2022-12-18T04:08:07;-6.80;99.90
11855;DHT22;5987;53.140;8.904;2022-12-18T04:11:11;-6.70;99.90
11855;DHT22;5987;53.140;8.904;2022-12-18T04:14:15;-7.00;99.90
11855;DHT22;5987;53.140;8.904;2022-12-18T04:17:21;-7.10;99.90
11855;DHT22;5987;53.140;8.904;2022-12-18T04:20:24;-7.00;99.90
11855;DHT22;5987;53.140;8.904;2022-12-18T04:23:28;-6.90;99.90
11855;DHT22;5987;53.140;8.904;2022-12-18T04:26:32;-7.00;99.90
11855;DHT22;5987;53.140;8.904;2022-12-18T04:29:35;-6.80;99.90
11855;DHT22;5987;53.140;8.904;2022-12-18T04:32:40;-6.90;99.90
11855;DHT22;5987;53.140;8.904;2022-12-18T04:35:51;-7.00;99.90
11855;DHT22;5987;53.140;8.904;2022-12-18T04:38:55;-7.10;99.90
11855;DHT22;5987;53.140;8.904;2022-12-18T04:41:58;-7.00;99.90
11855;DHT22;5987;53.140;8.904;2022-12-18T04:45:03;-6.90;99.90
11855;DHT22;5987;53.140;8.904;2022-12-18T04:48:08;-6.90;99.90
11855;DHT22;5987;53.140;8.904;2022-12-18T04:51:12;-6.90;99.90
11855;DHT22;5987;53.140;8.904;2022-12-18T04:54:20;-6.60;99.90
11855;DHT22;5987;53.140;8.904;2022-12-18T04:57:24;-6.60;99.90
11855;DHT22;5987;53.140;8.904;2022-12-18T05:00:28;-6.60;99.90
11855;DHT22;5987;53.140;8.904;2022-12-18T05:03:33;-6.80;99.90
11855;DHT22;5987;53.140;8.904;2022-12-18T05:06:38;-7.00;99.90
11855;DHT22;5987;53.140;8.904;2022-12-18T05:09:42;-7.10;99.90
11855;DHT22;5987;53.140;8.904;2022-12-18T05:12:46;-7.10;99.90
11855;DHT22;5987;53.140;8.904;2022-12-18T05:16:03;-7.20;99.90
11855;DHT22;5987;53.140;8.904;2022-12-18T05:19:08;-7.10;99.90
11855;DHT22;5987;53.140;8.904;2022-12-18T05:22:12;-7.00;99.90
11855;DHT22;5987;53.140;8.904;2022-12-18T05:25:16;-7.00;99.90
11855;DHT22;5987;53.140;8.904;2022-12-18T05:28:22;-6.90;99.90
11855;DHT22;5987;53.140;8.904;2022-12-18T05:31:26;-6.70;99.90
11855;DHT22;5987;53.140;8.904;2022-12-18T05:34:36;-6.70;99.90
11855;DHT22;5987;53.140;8.904;2022-12-18T05:37:40;-6.60;99.90
11855;DHT22;5987;53.140;8.904;2022-12-18T05:40:44;-6.60;99.90
11855;DHT22;5987;53.140;8.904;2022-12-18T05:43:48;-6.80;99.90
11855;DHT22;5987;53.140;8.904;2022-12-18T05:46:51;-6.90;99.90
11855;DHT22;5987;53.140;8.904;2022-12-18T05:49:56;-7.00;99.90
11855;DHT22;5987;53.140;8.904;2022-12-18T05:53:00;-7.00;99.90
11855;DHT22;5987;53.140;8.904;2022-12-18T05:56:06;-7.00;99.90
11855;DHT22;5987;53.140;8.904;2022-12-18T05:59:11;-7.00;99.90
11855;DHT22;5987;53.140;8.904;2022-12-18T06:02:15;-6.80;99.90
11855;DHT22;5987;53.140;8.904;2022-12-18T06:05:20;-6.60;99.90
11855;DHT22;5987;53.140;8.904;2022-12-18T06:08:24;-6.70;99.90
11855;DHT22;5987;53.140;8.904;2022-12-18T06:11:27;-6.70;99.90
11855;DHT22;5987;53.140;8.904;2022-12-18T06:14:31;-6.70;99.90
11855;DHT22;5987;53.140;8.904;2022-12-18T06:17:35;-6.90;99.90
11855;DHT22;5987;53.140;8.904;2022-12-18T06:20:41;-6.90;99.90
11855;DHT22;5987;53.140;8.904;2022-12-18T06:23:44;-6.90;99.90
11855;DHT22;5987;53.140;8.904;2022-12-18T06:26:48;-6.80;99.90
11855;DHT22;5987;53.140;8.904;2022-12-18T06:29:52;-6.90;99.90
11855;DHT22;5987;53.140;8.904;2022-12-18T06:32:55;-6.70;99.90
11855;DHT22;5987;53.140;8.904;2022-12-18T06:36:02;-6.60;99.90
11855;DHT22;5987;53.140;8.904;2022-12-18T06:39:08;-6.80;99.90
11855;DHT22;5987;53.140;8.904;2022-12-18T06:42:11;-6.90;99.90
11855;DHT22;5987;53.140;8.904;2022-12-18T06:45:15;-6.80;99.90
11855;DHT22;5987;53.140;8.904;2022-12-18T06:48:19;-6.70;99.90
11855;DHT22;5987;53.140;8.904;2022-12-18T06:51:24;-6.70;99.90
11855;DHT22;5987;53.140;8.904;2022-12-18T06:54:28;-6.70;99.90
11855;DHT22;5987;53.140;8.904;2022-12-18T06:57:32;-6.80;99.90
11855;DHT22;5987;53.140;8.904;2022-12-18T07:00:36;-6.90;99.90
11855;DHT22;5987;53.140;8.904;2022-12-18T07:03:40;-7.10;99.90
11855;DHT22;5987;53.140;8.904;2022-12-18T07:06:47;-7.10;99.90
11855;DHT22;5987;53.140;8.904;2022-12-18T07:09:51;-7.00;99.90
11855;DHT22;5987;53.140;8.904;2022-12-18T07:12:55;-6.80;99.90
11855;DHT22;5987;53.140;8.904;2022-12-18T07:16:04;-6.80;99.90
11855;DHT22;5987;53.140;8.904;2022-12-18T07:19:19;-6.60;99.90
11855;DHT22;5987;53.140;8.904;2022-12-18T07:22:27;-6.70;99.90
11855;DHT22;5987;53.140;8.904;2022-12-18T07:25:32;-6.70;99.90
11855;DHT22;5987;53.140;8.904;2022-12-18T07:28:38;-6.80;99.90
11855;DHT22;5987;53.140;8.904;2022-12-18T07:31:42;-6.90;99.90
11855;DHT22;5987;53.140;8.904;2022-12-18T07:34:46;-6.90;99.90
11855;DHT22;5987;53.140;8.904;2022-12-18T07:37:51;-6.90;99.90
11855;DHT22;5987;53.140;8.904;2022-12-18T07:40:59;-6.80;99.90
11855;DHT22;5987;53.140;8.904;2022-12-18T07:44:04;-6.90;99.90
11855;DHT22;5987;53.140;8.904;2022-12-18T07:47:07;-6.90;99.90
11855;DHT22;5987;53.140;8.904;2022-12-18T07:50:13;-6.80;99.90
11855;DHT22;5987;53.140;8.904;2022-12-18T07:53:19;-6.80;99.90
11855;DHT22;5987;53.140;8.904;2022-12-18T07:56:22;-6.70;99.90
11855;DHT22;5987;53.140;8.904;2022-12-18T07:59:28;-6.60;99.90
11855;DHT22;5987;53.140;8.904;2022-12-18T08:02:32;-6.60;99.90
11855;DHT22;5987;53.140;8.904;2022-12-18T08:05:36;-6.70;99.90
11855;DHT22;5987;53.140;8.904;2022-12-18T08:08:41;-6.70;99.90
11855;DHT22;5987;53.140;8.904;2022-12-18T08:11:45;-6.50;99.90
11855;DHT22;5987;53.140;8.904;2022-12-18T08:14:48;-6.40;99.90
11855;DHT22;5987;53.140;8.904;2022-12-18T08:17:56;-6.30;99.90
11855;DHT22;5987;53.140;8.904;2022-12-18T08:21:08;-6.40;99.90
11855;DHT22;5987;53.140;8.904;2022-12-18T08:24:14;-6.30;99.90
11855;DHT22;5987;53.140;8.904;2022-12-18T08:27:17;-6.20;99.90
11855;DHT22;5987;53.140;8.904;2022-12-18T08:30:30;-6.10;99.90
11855;DHT22;5987;53.140;8.904;2022-12-18T08:33:35;-6.00;99.90
11855;DHT22;5987;53.140;8.904;2022-12-18T08:36:40;-6.00;99.90
11855;DHT22;5987;53.140;8.904;2022-12-18T08:39:45;-6.10;99.90
11855;DHT22;5987;53.140;8.904;2022-12-18T08:42:48;-5.90;99.90
11855;DHT22;5987;53.140;8.904;2022-12-18T08:46:10;-5.90;99.90
11855;DHT22;5987;53.140;8.904;2022-12-18T08:49:14;-5.80;99.90
11855;DHT22;5987;53.140;8.904;2022-12-18T08:52:18;-5.60;99.90
11855;DHT22;5987;53.140;8.904;2022-12-18T08:55:23;-5.40;99.90
11855;DHT22;5987;53.140;8.904;2022-12-18T08:58:27;-5.40;99.90
11855;DHT22;5987;53.140;8.904;2022-12-18T09:01:31;-5.30;99.90
11855;DHT22;5987;53.140;8.904;2022-12-18T09:04:36;-5.30;99.90
11855;DHT22;5987;53.140;8.904;2022-12-18T09:07:42;-5.20;99.90
11855;DHT22;5987;53.140;8.904;2022-12-18T09:10:48;-5.20;99.90
11855;DHT22;5987;53.140;8.904;2022-12-18T09:13:53;-5.10;99.90
11855;DHT22;5987;53.140;8.904;2022-12-18T09:16:58;-5.00;99.90
11855;DHT22;5987;53.140;8.904;2022-12-18T09:20:02;-4.90;99.90
11855;DHT22;5987;53.140;8.904;2022-12-18T09:23:06;-4.90;99.90
11855;DHT22;5987;53.140;8.904;2022-12-18T09:26:12;-4.80;99.90
11855;DHT22;5987;53.140;8.904;2022-12-18T09:29:16;-4.70;99.90
11855;DHT22;5987;53.140;8.904;2022-12-18T09:32:20;-4.70;99.90
11855;DHT22;5987;53.140;8.904;2022-12-18T09:35:23;-4.60;99.90
11855;DHT22;5987;53.140;8.904;2022-12-18T09:38:27;-4.50;99.90
11855;DHT22;5987;53.140;8.904;2022-12-18T09:41:41;-4.50;99.90
11855;DHT22;5987;53.140;8.904;2022-12-18T09:44:50;-4.40;99.90
11855;DHT22;5987;53.140;8.904;2022-12-18T09:47:56;-4.20;99.90
11855;DHT22;5987;53.140;8.904;2022-12-18T09:51:11;-4.20;99.90
11855;DHT22;5987;53.140;8.904;2022-12-18T09:54:21;-4.10;99.90
11855;DHT22;5987;53.140;8.904;2022-12-18T09:57:32;-4.20;99.90
11855;DHT22;5987;53.140;8.904;2022-12-18T10:00:39;-4.00;99.90
11855;DHT22;5987;53.140;8.904;2022-12-18T10:03:47;-3.80;99.90
11855;DHT22;5987;53.140;8.904;2022-12-18T10:06:57;-3.80;99.90
11855;DHT22;5987;53.140;8.904;2022-12-18T10:10:19;-3.80;99.90
11855;DHT22;5987;53.140;8.904;2022-12-18T10:13:42;-3.60;99.90
11855;DHT22;5987;53.140;8.904;2022-12-18T10:17:00;-3.50;99.90
11855;DHT22;5987;53.140;8.904;2022-12-18T10:20:21;-3.50;99.90
11855;DHT22;5987;53.140;8.904;2022-12-18T10:23:36;-3.50;99.90
11855;DHT22;5987;53.140;8.904;2022-12-18T10:26:49;-3.50;99.90
11855;DHT22;5987;53.140;8.904;2022-12-18T10:29:57;-3.40;99.90
11855;DHT22;5987;53.140;8.904;2022-12-18T10:33:01;-3.30;99.90
11855;DHT22;5987;53.140;8.904;2022-12-18T10:36:06;-3.30;99.90
11855;DHT22;5987;53.140;8.904;2022-12-18T10:39:18;-3.40;99.90
11855;DHT22;5987;53.140;8.904;2022-12-18T10:42:24;-3.30;99.90
11855;DHT22;5987;53.140;8.904;2022-12-18T10:45:30;-3.20;99.90
11855;DHT22;5987;53.140;8.904;2022-12-18T10:48:38;-3.20;99.90
11855;DHT22;5987;53.140;8.904;2022-12-18T10:51:51;-3.30;99.90
11855;DHT22;5987;53.140;8.904;2022-12-18T10:55:16;-3.30;99.90
11855;DHT22;5987;53.140;8.904;2022-12-18T10:58:27;-3.20;99.90
11855;DHT22;5987;53.140;8.904;2022-12-18T11:01:50;-3.10;99.90
11855;DHT22;5987;53.140;8.904;2022-12-18T11:04:57;-3.10;99.90
11855;DHT22;5987;53.140;8.904;2022-12-18T11:08:01;-2.90;99.90
11855;DHT22;5987;53.140;8.904;2022-12-18T11:11:14;-2.80;99.90
11855;DHT22;5987;53.140;8.904;2022-12-18T11:14:24;-2.80;99.90
11855;DHT22;5987;53.140;8.904;2022-12-18T11:17:33;-2.70;99.90
11855;DHT22;5987;53.140;8.904;2022-12-18T11:20:39;-2.70;99.90
11855;DHT22;5987;53.140;8.904;2022-12-18T11:23:47;-2.70;99.90
11855;DHT22;5987;53.140;8.904;2022-12-18T11:26:54;-2.60;99.90
11855;DHT22;5987;53.140;8.904;2022-12-18T11:30:09;-2.50;99.90
11855;DHT22;5987;53.140;8.904;2022-12-18T11:33:26;-2.50;99.90
11855;DHT22;5987;53.140;8.904;2022-12-18T11:36:33;-2.50;99.90
11855;DHT22;5987;53.140;8.904;2022-12-18T11:39:44;-2.40;99.90
11855;DHT22;5987;53.140;8.904;2022-12-18T11:42:58;-2.40;99.90
11855;DHT22;5987;53.140;8.904;2022-12-18T11:46:08;-2.20;99.90
11855;DHT22;5987;53.140;8.904;2022-12-18T11:49:27;-2.00;99.90
11855;DHT22;5987;53.140;8.904;2022-12-18T11:52:38;-1.80;99.90
11855;DHT22;5987;53.140;8.904;2022-12-18T11:55:54;-1.70;99.90
11855;DHT22;5987;53.140;8.904;2022-12-18T11:59:13;-1.60;99.90
11855;DHT22;5987;53.140;8.904;2022-12-18T12:02:35;-1.50;99.90
11855;DHT22;5987;53.140;8.904;2022-12-18T12:06:02;-1.30;99.90
11855;DHT22;5987;53.140;8.904;2022-12-18T12:09:22;-1.30;99.90
11855;DHT22;5987;53.140;8.904;2022-12-18T12:12:39;-1.20;99.90
11855;DHT22;5987;53.140;8.904;2022-12-18T12:16:05;-1.10;99.90
11855;DHT22;5987;53.140;8.904;2022-12-18T12:19:29;-1.20;99.90
11855;DHT22;5987;53.140;8.904;2022-12-18T12:22:53;-1.20;99.90
11855;DHT22;5987;53.140;8.904;2022-12-18T12:26:08;-1.10;99.90
11855;DHT22;5987;53.140;8.904;2022-12-18T12:29:27;-1.10;99.90
11855;DHT22;5987;53.140;8.904;2022-12-18T12:32:56;-1.00;99.90
11855;DHT22;5987;53.140;8.904;2022-12-18T12:36:12;-1.00;99.90
11855;DHT22;5987;53.140;8.904;2022-12-18T12:39:30;-0.90;99.90
11855;DHT22;5987;53.140;8.904;2022-12-18T12:42:40;-0.80;99.90
11855;DHT22;5987;53.140;8.904;2022-12-18T12:46:08;-0.80;99.90
11855;DHT22;5987;53.140;8.904;2022-12-18T12:49:16;-0.80;99.90
11855;DHT22;5987;53.140;8.904;2022-12-18T12:52:31;-0.90;99.90
11855;DHT22;5987;53.140;8.904;2022-12-18T12:55:41;-1.00;99.90
11855;DHT22;5987;53.140;8.904;2022-12-18T12:58:54;-1.00;99.90
11855;DHT22;5987;53.140;8.904;2022-12-18T13:02:11;-1.00;99.90
11855;DHT22;5987;53.140;8.904;2022-12-18T13:05:30;-1.00;99.90
11855;DHT22;5987;53.140;8.904;2022-12-18T13:08:53;-1.00;99.90
11855;DHT22;5987;53.140;8.904;2022-12-18T13:12:04;-1.10;99.90
11855;DHT22;5987;53.140;8.904;2022-12-18T13:16:04;-1.10;99.90
11855;DHT22;5987;53.140;8.904;2022-12-18T13:19:22;-1.10;99.90
11855;DHT22;5987;53.140;8.904;2022-12-18T13:22:31;-1.10;99.90
11855;DHT22;5987;53.140;8.904;2022-12-18T13:25:38;-1.10;99.90
11855;DHT22;5987;53.140;8.904;2022-12-18T13:28:54;-1.20;99.90
11855;DHT22;5987;53.140;8.904;2022-12-18T13:32:00;-1.20;99.90
11855;DHT22;5987;53.140;8.904;2022-12-18T13:35:39;-1.30;99.90
11855;DHT22;5987;53.140;8.904;2022-12-18T13:38:45;-1.20;99.90
11855;DHT22;5987;53.140;8.904;2022-12-18T13:41:51;-1.10;99.90
11855;DHT22;5987;53.140;8.904;2022-12-18T13:44:58;-1.20;99.90
11855;DHT22;5987;53.140;8.904;2022-12-18T13:48:03;-1.20;99.90
11855;DHT22;5987;53.140;8.904;2022-12-18T13:51:09;-1.20;99.90
11855;DHT22;5987;53.140;8.904;2022-12-18T13:54:19;-1.20;99.90
11855;DHT22;5987;53.140;8.904;2022-12-18T13:57:28;-1.20;99.90
11855;DHT22;5987;53.140;8.904;2022-12-18T14:00:34;-1.10;99.90
11855;DHT22;5987;53.140;8.904;2022-12-18T14:03:38;-1.20;99.90
11855;DHT22;5987;53.140;8.904;2022-12-18T14:06:44;-1.30;99.90
11855;DHT22;5987;53.140;8.904;2022-12-18T14:09:52;-1.20;99.90
11855;DHT22;5987;53.140;8.904;2022-12-18T14:13:26;-1.30;99.90
11855;DHT22;5987;53.140;8.904;2022-12-18T14:16:34;-1.20;99.90
11855;DHT22;5987;53.140;8.904;2022-12-18T14:19:42;-1.30;99.90
11855;DHT22;5987;53.140;8.904;2022-12-18T14:22:48;-1.30;99.90
11855;DHT22;5987;53.140;8.904;2022-12-18T14:25:52;-1.30;99.90
11855;DHT22;5987;53.140;8.904;2022-12-18T14:29:01;-1.20;99.90
11855;DHT22;5987;53.140;8.904;2022-12-18T14:32:23;-1.20;99.90
11855;DHT22;5987;53.140;8.904;2022-12-18T14:35:27;-1.20;99.90
11855;DHT22;5987;53.140;8.904;2022-12-18T14:38:34;-1.30;99.90
11855;DHT22;5987;53.140;8.904;2022-12-18T14:41:39;-1.30;99.90
11855;DHT22;5987;53.140;8.904;2022-12-18T14:44:43;-1.20;99.90
11855;DHT22;5987;53.140;8.904;2022-12-18T14:48:14;-1.20;99.90
11855;DHT22;5987;53.140;8.904;2022-12-18T14:51:25;-1.20;99.90
11855;DHT22;5987;53.140;8.904;2022-12-18T14:54:30;-1.30;99.90
11855;DHT22;5987;53.140;8.904;2022-12-18T14:57:36;-1.30;99.90
11855;DHT22;5987;53.140;8.904;2022-12-18T15:00:42;-1.40;99.90
11855;DHT22;5987;53.140;8.904;2022-12-18T15:03:49;-1.30;99.90
11855;DHT22;5987;53.140;8.904;2022-12-18T15:07:12;-1.30;99.90
11855;DHT22;5987;53.140;8.904;2022-12-18T15:10:20;-1.40;99.90
11855;DHT22;5987;53.140;8.904;2022-12-18T15:13:26;-1.40;99.90
11855;DHT22;5987;53.140;8.904;2022-12-18T15:16:31;-1.30;99.90
11855;DHT22;5987;53.140;8.904;2022-12-18T15:19:39;-1.40;99.90
11855;DHT22;5987;53.140;8.904;2022-12-18T15:22:47;-1.40;99.90
11855;DHT22;5987;53.140;8.904;2022-12-18T15:25:55;-1.40;99.90
11855;DHT22;5987;53.140;8.904;2022-12-18T15:29:01;-1.40;99.90
11855;DHT22;5987;53.140;8.904;2022-12-18T15:32:17;-1.30;99.90
11855;DHT22;5987;53.140;8.904;2022-12-18T15:35:26;-1.40;99.90
11855;DHT22;5987;53.140;8.904;2022-12-18T15:38:31;-1.30;99.90
11855;DHT22;5987;53.140;8.904;2022-12-18T15:41:36;-1.30;99.90
11855;DHT22;5987;53.140;8.904;2022-12-18T15:44:39;-1.30;99.90
11855;DHT22;5987;53.140;8.904;2022-12-18T15:47:44;-1.30;99.90
11855;DHT22;5987;53.140;8.904;2022-12-18T15:50:50;-1.30;99.90
11855;DHT22;5987;53.140;8.904;2022-12-18T15:53:58;-1.10;99.90
11855;DHT22;5987;53.140;8.904;2022-12-18T15:57:03;-1.10;99.90
11855;DHT22;5987;53.140;8.904;2022-12-18T16:00:25;-1.00;99.90
11855;DHT22;5987;53.140;8.904;2022-12-18T16:03:28;-1.00;99.90
11855;DHT22;5987;53.140;8.904;2022-12-18T16:06:34;-0.90;99.90
11855;DHT22;5987;53.140;8.904;2022-12-18T16:09:59;-1.00;99.90
11855;DHT22;5987;53.140;8.904;2022-12-18T16:13:04;-1.10;99.90
11855;DHT22;5987;53.140;8.904;2022-12-18T16:16:08;-1.10;99.90
11855;DHT22;5987;53.140;8.904;2022-12-18T16:19:12;-0.90;99.90
11855;DHT22;5987;53.140;8.904;2022-12-18T16:22:20;-0.90;99.90
11855;DHT22;5987;53.140;8.904;2022-12-18T16:25:27;-0.90;99.90
11855;DHT22;5987;53.140;8.904;2022-12-18T16:28:32;-0.80;99.90
11855;DHT22;5987;53.140;8.904;2022-12-18T16:31:37;-0.80;99.90
11855;DHT22;5987;53.140;8.904;2022-12-18T16:34:42;-0.80;99.90
11855;DHT22;5987;53.140;8.904;2022-12-18T16:37:49;-0.70;99.90
11855;DHT22;5987;53.140;8.904;2022-12-18T16:40:53;-0.70;99.90
11855;DHT22;5987;53.140;8.904;2022-12-18T16:44:14;-0.60;99.90
11855;DHT22;5987;53.140;8.904;2022-12-18T16:47:18;-0.60;99.90
11855;DHT22;5987;53.140;8.904;2022-12-18T16:50:23;-0.60;99.90
11855;DHT22;5987;53.140;8.904;2022-12-18T16:53:28;-0.50;99.90
11855;DHT22;5987;53.140;8.904;2022-12-18T16:56:33;-0.50;99.90
11855;DHT22;5987;53.140;8.904;2022-12-18T16:59:37;-0.50;99.90
11855;DHT22;5987;53.140;8.904;2022-12-18T17:02:41;-0.50;99.90
11855;DHT22;5987;53.140;8.904;2022-12-18T17:05:45;-0.50;99.90
11855;DHT22;5987;53.140;8.904;2022-12-18T17:08:56;-0.50;99.90
11855;DHT22;5987;53.140;8.904;2022-12-18T17:12:04;-0.50;99.90
11855;DHT22;5987;53.140;8.904;2022-12-18T17:15:09;-0.50;99.90
11855;DHT22;5987;53.140;8.904;2022-12-18T17:18:14;-0.50;99.90
11855;DHT22;5987;53.140;8.904;2022-12-18T17:21:18;-0.50;99.90
11855;DHT22;5987;53.140;8.904;2022-12-18T17:24:23;-0.50;99.90
11855;DHT22;5987;53.140;8.904;2022-12-18T17:27:35;-0.50;99.90
11855;DHT22;5987;53.140;8.904;2022-12-18T17:30:39;-0.50;99.90
11855;DHT22;5987;53.140;8.904;2022-12-18T17:33:45;-0.60;99.90
11855;DHT22;5987;53.140;8.904;2022-12-18T17:36:49;-0.50;99.90
11855;DHT22;5987;53.140;8.904;2022-12-18T17:39:54;-0.50;99.90
11855;DHT22;5987;53.140;8.904;2022-12-18T17:42:58;-0.50;99.90
11855;DHT22;5987;53.140;8.904;2022-12-18T17:46:03;-0.50;99.90
11855;DHT22;5987;53.140;8.904;2022-12-18T17:49:10;-0.60;99.90
11855;DHT22;5987;53.140;8.904;2022-12-18T17:52:15;-0.60;99.90
11855;DHT22;5987;53.140;8.904;2022-12-18T17:55:20;-0.50;99.90
11855;DHT22;5987;53.140;8.904;2022-12-18T17:58:24;-0.50;99.90
11855;DHT22;5987;53.140;8.904;2022-12-18T18:01:28;-0.50;99.90
11855;DHT22;5987;53.140;8.904;2022-12-18T18:04:32;-0.40;99.90
11855;DHT22;5987;53.140;8.904;2022-12-18T18:07:36;-0.50;99.90
11855;DHT22;5987;53.140;8.904;2022-12-18T18:10:43;-0.50;99.90
11855;DHT22;5987;53.140;8.904;2022-12-18T18:13:50;-0.50;99.90
11855;DHT22;5987;53.140;8.904;2022-12-18T18:17:02;-0.40;99.90
11855;DHT22;5987;53.140;8.904;2022-12-18T18:20:07;-0.40;99.90
11855;DHT22;5987;53.140;8.904;2022-12-18T18:23:11;-0.40;99.90
11855;DHT22;5987;53.140;8.904;2022-12-18T18:26:17;-0.40;99.90
11855;DHT22;5987;53.140;8.904;2022-12-18T18:29:22;-0.40;99.90
11855;DHT22;5987;53.140;8.904;2022-12-18T18:32:30;-0.40;99.90
11855;DHT22;5987;53.140;8.904;2022-12-18T18:35:34;-0.40;99.90
11855;DHT22;5987;53.140;8.904;2022-12-18T18:38:58;-0.30;99.90
11855;DHT22;5987;53.140;8.904;2022-12-18T18:42:04;-0.40;99.90
11855;DHT22;5987;53.140;8.904;2022-12-18T18:45:09;-0.40;99.90
11855;DHT22;5987;53.140;8.904;2022-12-18T18:48:13;-0.40;99.90
11855;DHT22;5987;53.140;8.904;2022-12-18T18:51:18;-0.30;99.90
11855;DHT22;5987;53.140;8.904;2022-12-18T18:54:23;-0.30;99.90
11855;DHT22;5987;53.140;8.904;2022-12-18T18:57:29;-0.30;99.90
11855;DHT22;5987;53.140;8.904;2022-12-18T19:00:33;-0.40;99.90
11855;DHT22;5987;53.140;8.904;2022-12-18T19:03:37;-0.40;99.90
11855;DHT22;5987;53.140;8.904;2022-12-18T19:06:42;-0.30;99.90
11855;DHT22;5987;53.140;8.904;2022-12-18T19:09:48;-0.30;99.90
11855;DHT22;5987;53.140;8.904;2022-12-18T19:12:54;-0.40;99.90
11855;DHT22;5987;53.140;8.904;2022-12-18T19:16:24;-0.40;99.90
11855;DHT22;5987;53.140;8.904;2022-12-18T19:19:30;-0.30;99.90
11855;DHT22;5987;53.140;8.904;2022-12-18T19:22:34;-0.30;99.90
11855;DHT22;5987;53.140;8.904;2022-12-18T19:25:38;-0.30;99.90
11855;DHT22;5987;53.140;8.904;2022-12-18T19:28:45;-0.30;99.90
11855;DHT22;5987;53.140;8.904;2022-12-18T19:31:49;-0.40;99.90
11855;DHT22;5987;53.140;8.904;2022-12-18T19:34:53;-0.40;99.90
11855;DHT22;5987;53.140;8.904;2022-12-18T19:37:58;-0.40;99.90
11855;DHT22;5987;53.140;8.904;2022-12-18T19:41:03;-0.40;99.90
11855;DHT22;5987;53.140;8.904;2022-12-18T19:44:10;-0.30;99.90
11855;DHT22;5987;53.140;8.904;2022-12-18T19:47:14;-0.30;99.90
11855;DHT22;5987;53.140;8.904;2022-12-18T19:50:18;-0.30;99.90
11855;DHT22;5987;53.140;8.904;2022-12-18T19:53:22;-0.30;99.90
11855;DHT22;5987;53.140;8.904;2022-12-18T19:56:28;-0.30;99.90
11855;DHT22;5987;53.140;8.904;2022-12-18T19:59:34;-0.30;99.90
11855;DHT22;5987;53.140;8.904;2022-12-18T20:02:39;-0.40;99.90
11855;DHT22;5987;53.140;8.904;2022-12-18T20:05:43;-0.40;99.90
11855;DHT22;5987;53.140;8.904;2022-12-18T20:08:48;-0.40;99.90